Time;durP1;ratioP1;P1;durP2;ratioP2;P2;SDS_P1;SDS_P2;PMS_P1;PMS_P2;Temp;Humidity;BMP_temperature;BMP_pressure;BME280_temperature;BME280_humidity;BME280_pressure;Samples;Min_cycle;Max_cycle;Signal;HPM_P1;HPM_P2
2022/10/19 00:01:53;;;;;;;6.63;2.30;;;;;;;;;;5116939;27;20035;-77
2022/10/19 00:04:19;;;;;;;9.05;2.85;;;;;;;;;;5136439;27;20039;-77
2022/10/19 00:06:45;;;;;;;7.50;2.83;;;;;;;;;;5143122;27;20096;-77
2022/10/19 00:09:13;;;;;;;7.40;2.60;;;;;;;;;;5134931;27;20185;-76
2022/10/19 00:11:40;;;;;;;5.13;2.28;;;;;;;;;;5117051;27;20551;-77
2022/10/19 00:14:07;;;;;;;5.75;2.33;;;;;;;;;;5144123;27;20391;-77
2022/10/19 00:16:35;;;;;;;6.80;2.70;;;;;;;;;;5141684;27;20046;-77
2022/10/19 00:19:02;;;;;;;10.10;3.28;;;;;;;;;;5134901;27;20051;-76
2022/10/19 00:21:29;;;;;;;7.60;2.20;;;;;;;;;;5120757;27;20119;-76
2022/10/19 00:23:55;;;;;;;9.48;2.97;;;;;;;;;;5136594;27;20120;-76
2022/10/19 00:26:21;;;;;;;10.95;2.90;;;;;;;;;;5143195;27;20028;-76
2022/10/19 00:28:47;;;;;;;8.55;2.58;;;;;;;;;;5096313;28;20039;-76
2022/10/19 00:31:15;;;;;;;9.38;2.95;;;;;;;;;;5109324;27;20492;-76
2022/10/19 00:33:42;;;;;;;11.02;3.58;;;;;;;;;;5134370;27;20510;-76
2022/10/19 00:36:18;;;;;;;10.15;2.80;;;;;;;;;;5136062;27;20570;-76
2022/10/19 00:38:45;;;;;;;8.55;3.35;;;;;;;;;;5123211;27;20449;-76
2022/10/19 00:41:11;;;;;;;11.77;3.00;;;;;;;;;;5116362;27;20030;-76
2022/10/19 00:44:09;;;;;;;5.25;2.20;;;;;;;;;;5134595;27;20039;-76
2022/10/19 00:46:37;;;;;;;10.82;2.58;;;;;;;;;;5071007;27;20461;-76
2022/10/19 00:49:05;;;;;;;11.85;2.92;;;;;;;;;;5118373;27;20047;-76
2022/10/19 00:51:33;;;;;;;8.70;2.60;;;;;;;;;;5099732;27;20429;-76
2022/10/19 00:54:00;;;;;;;7.90;3.58;;;;;;;;;;5133956;27;20384;-76
2022/10/19 00:56:26;;;;;;;9.73;3.08;;;;;;;;;;5110331;27;20036;-76
2022/10/19 00:58:53;;;;;;;12.88;3.33;;;;;;;;;;5106280;27;20055;-76
2022/10/19 01:01:21;;;;;;;8.48;2.65;;;;;;;;;;5113193;28;20039;-68
2022/10/19 01:03:47;;;;;;;11.90;2.88;;;;;;;;;;5112455;28;20039;-67
2022/10/19 01:06:14;;;;;;;5.55;2.90;;;;;;;;;;5116165;27;20031;-76
2022/10/19 01:08:40;;;;;;;8.68;3.10;;;;;;;;;;5124535;27;20047;-67
2022/10/19 01:11:06;;;;;;;25.08;4.85;;;;;;;;;;5112973;28;20126;-76
2022/10/19 01:13:39;;;;;;;5.78;2.33;;;;;;;;;;5104975;28;20105;-68
2022/10/19 01:16:14;;;;;;;3.55;1.95;;;;;;;;;;5107023;28;20079;-68
2022/10/19 01:18:53;;;;;;;9.18;2.40;;;;;;;;;;5122924;27;20408;-68
2022/10/19 01:21:29;;;;;;;5.85;2.47;;;;;;;;;;5108258;28;20035;-68
2022/10/19 01:24:10;;;;;;;7.63;2.67;;;;;;;;;;5113618;27;20039;-68
2022/10/19 01:26:43;;;;;;;8.57;2.13;;;;;;;;;;5116056;27;20065;-68
2022/10/19 01:29:18;;;;;;;9.52;2.85;;;;;;;;;;5113955;27;20419;-68
2022/10/19 01:31:52;;;;;;;6.27;2.43;;;;;;;;;;5113198;28;20035;-68
2022/10/19 01:34:36;;;;;;;16.95;3.50;;;;;;;;;;5112946;28;20039;-68
2022/10/19 01:37:14;;;;;;;5.00;2.47;;;;;;;;;;5117784;27;20039;-67
2022/10/19 01:39:43;;;;;;;11.23;3.33;;;;;;;;;;5123118;27;20126;-68
2022/10/19 01:42:15;;;;;;;10.45;3.08;;;;;;;;;;5111192;28;20122;-68
2022/10/19 01:44:49;;;;;;;9.20;2.40;;;;;;;;;;5094262;28;20039;-76
2022/10/19 01:47:18;;;;;;;7.30;2.08;;;;;;;;;;5095729;28;20032;-68
2022/10/19 01:49:46;;;;;;;9.02;3.20;;;;;;;;;;5125836;27;20436;-68
2022/10/19 01:52:15;;;;;;;6.80;2.83;;;;;;;;;;5118851;27;20082;-68
2022/10/19 01:54:49;;;;;;;10.50;2.15;;;;;;;;;;5111655;28;20046;-68
2022/10/19 01:57:18;;;;;;;11.65;1.67;;;;;;;;;;5114434;27;20113;-68
2022/10/19 01:59:45;;;;;;;7.88;1.85;;;;;;;;;;5115566;27;20082;-68
2022/10/19 02:02:13;;;;;;;7.05;2.10;;;;;;;;;;5132184;27;20087;-76
2022/10/19 02:04:40;;;;;;;7.00;2.03;;;;;;;;;;5117206;27;20547;-76
2022/10/19 02:07:07;;;;;;;6.35;2.35;;;;;;;;;;5132666;27;20066;-76
2022/10/19 02:09:33;;;;;;;9.65;3.20;;;;;;;;;;5134074;27;20042;-76
2022/10/19 02:12:02;;;;;;;11.23;3.30;;;;;;;;;;5133090;27;20495;-76
2022/10/19 02:14:33;;;;;;;11.23;3.28;;;;;;;;;;5115817;27;20050;-77
2022/10/19 02:17:02;;;;;;;16.35;4.00;;;;;;;;;;5115003;28;20552;-76
2022/10/19 02:19:28;;;;;;;6.43;2.72;;;;;;;;;;5114648;27;20050;-76
2022/10/19 02:21:55;;;;;;;9.95;3.17;;;;;;;;;;5128379;28;20047;-76
2022/10/19 02:24:22;;;;;;;8.13;2.33;;;;;;;;;;5132834;28;20043;-77
2022/10/19 02:26:49;;;;;;;6.95;2.13;;;;;;;;;;5145035;27;20100;-68
2022/10/19 02:29:15;;;;;;;7.95;2.60;;;;;;;;;;5097872;28;20043;-68
2022/10/19 02:31:42;;;;;;;8.27;3.00;;;;;;;;;;5115654;28;20104;-68
2022/10/19 02:34:08;;;;;;;7.78;2.67;;;;;;;;;;5114418;28;20144;-68
2022/10/19 02:36:34;;;;;;;8.27;3.30;;;;;;;;;;5098487;28;20043;-68
2022/10/19 02:39:01;;;;;;;9.52;3.05;;;;;;;;;;5132943;28;20031;-68
2022/10/19 02:41:47;;;;;;;7.82;3.50;;;;;;;;;;5115123;28;20035;-68
2022/10/19 02:44:23;;;;;;;8.50;3.47;;;;;;;;;;5128242;28;20063;-76
2022/10/19 02:46:49;;;;;;;;;;;;;;;;;;5125958;27;20092;-77
2022/10/19 02:49:15;;;;;;;9.02;2.70;;;;;;;;;;5105707;28;19916;-76
2022/10/19 02:52:00;;;;;;;9.80;2.53;;;;;;;;;;5138682;27;20415;-76
2022/10/19 02:54:26;;;;;;;8.15;2.83;;;;;;;;;;5135363;27;20042;-76
2022/10/19 02:56:52;;;;;;;9.63;2.67;;;;;;;;;;5118012;27;20047;-76
2022/10/19 02:59:18;;;;;;;10.55;3.75;;;;;;;;;;5117996;27;20099;-76
2022/10/19 03:01:44;;;;;;;10.00;3.42;;;;;;;;;;5137809;27;20039;-68
2022/10/19 03:04:10;;;;;;;8.35;2.95;;;;;;;;;;5139608;27;20035;-68
2022/10/19 03:06:36;;;;;;;10.23;2.50;;;;;;;;;;5128347;27;20036;-69
2022/10/19 03:09:03;;;;;;;5.40;2.35;;;;;;;;;;5120736;27;20091;-68
2022/10/19 03:11:29;;;;;;;7.40;2.28;;;;;;;;;;5136328;27;20039;-68
2022/10/19 03:13:55;;;;;;;6.15;2.30;;;;;;;;;;5137509;27;20088;-68
2022/10/19 03:16:21;;;;;;;12.85;3.67;;;;;;;;;;5117869;27;20033;-68
2022/10/19 03:18:47;;;;;;;12.27;3.40;;;;;;;;;;5137304;27;20077;-68
2022/10/19 03:21:14;;;;;;;6.18;2.85;;;;;;;;;;5100822;27;20074;-69
2022/10/19 03:23:40;;;;;;;7.88;2.80;;;;;;;;;;5109413;27;20042;-68
2022/10/19 03:26:07;;;;;;;12.93;3.53;;;;;;;;;;5142211;27;20084;-68
2022/10/19 03:28:33;;;;;;;10.13;3.53;;;;;;;;;;5136639;27;20062;-68
2022/10/19 03:31:00;;;;;;;13.68;3.80;;;;;;;;;;5117909;27;20035;-68
2022/10/19 03:33:26;;;;;;;13.40;4.40;;;;;;;;;;5118222;27;20050;-68
2022/10/19 03:36:12;;;;;;;8.90;3.08;;;;;;;;;;5125209;27;20176;-68
2022/10/19 03:38:38;;;;;;;7.35;3.08;;;;;;;;;;5116560;27;20047;-68
2022/10/19 03:41:08;;;;;;;7.88;2.80;;;;;;;;;;5118768;27;20043;-68
2022/10/19 03:43:34;;;;;;;9.77;3.63;;;;;;;;;;5135733;27;20231;-68
2022/10/19 03:46:00;;;;;;;12.23;3.92;;;;;;;;;;5126183;27;20046;-68
2022/10/19 03:48:26;;;;;;;11.40;3.45;;;;;;;;;;5117006;27;20046;-68
2022/10/19 03:51:04;;;;;;;6.93;2.83;;;;;;;;;;5118645;27;20043;-68
2022/10/19 03:53:30;;;;;;;8.18;3.10;;;;;;;;;;5115132;27;20050;-68
2022/10/19 03:56:06;;;;;;;7.30;3.05;;;;;;;;;;5137957;27;20115;-68
2022/10/19 03:58:34;;;;;;;8.25;3.17;;;;;;;;;;5099129;27;20047;-68
2022/10/19 04:01:00;;;;;;;8.15;3.03;;;;;;;;;;5135524;27;20373;-68
2022/10/19 04:03:26;;;;;;;7.65;3.03;;;;;;;;;;5134898;27;20368;-68
2022/10/19 04:05:52;;;;;;;8.32;3.10;;;;;;;;;;5116853;27;20046;-75
2022/10/19 04:08:18;;;;;;;6.95;3.38;;;;;;;;;;5114366;27;20123;-76
2022/10/19 04:10:44;;;;;;;10.93;3.85;;;;;;;;;;5102402;27;20050;-76
2022/10/19 04:13:11;;;;;;;6.30;2.72;;;;;;;;;;5106483;27;20110;-76
2022/10/19 04:15:37;;;;;;;6.50;3.15;;;;;;;;;;5105331;27;20053;-68
2022/10/19 04:18:03;;;;;;;8.00;3.45;;;;;;;;;;5114618;28;20106;-76
2022/10/19 04:20:29;;;;;;;9.88;3.60;;;;;;;;;;5114139;28;20078;-76
2022/10/19 04:22:55;;;;;;;9.40;3.10;;;;;;;;;;5121776;27;20035;-76
2022/10/19 04:25:21;;;;;;;9.07;3.17;;;;;;;;;;5097335;28;20032;-76
2022/10/19 04:27:47;;;;;;;7.25;2.80;;;;;;;;;;5098901;27;20039;-76
2022/10/19 04:30:13;;;;;;;10.18;3.38;;;;;;;;;;5098980;28;20039;-76
2022/10/19 04:32:39;;;;;;;7.68;3.67;;;;;;;;;;5130866;27;20041;-76
2022/10/19 04:35:06;;;;;;;7.32;3.13;;;;;;;;;;5126850;27;20031;-76
2022/10/19 04:37:32;;;;;;;9.40;3.10;;;;;;;;;;5101147;27;20078;-76
2022/10/19 04:39:58;;;;;;;5.97;2.70;;;;;;;;;;5102196;28;20040;-76
2022/10/19 04:42:24;;;;;;;8.13;3.10;;;;;;;;;;5100395;27;20030;-76
2022/10/19 04:44:50;;;;;;;4.03;2.03;;;;;;;;;;5116707;27;20084;-76
2022/10/19 04:47:16;;;;;;;11.43;3.00;;;;;;;;;;5103784;27;20391;-76
2022/10/19 04:49:42;;;;;;;5.20;2.45;;;;;;;;;;5113623;28;20504;-68
2022/10/19 04:52:08;;;;;;;11.20;2.80;;;;;;;;;;5079012;28;20502;-68
2022/10/19 04:54:34;;;;;;;8.60;3.00;;;;;;;;;;5108928;27;20042;-78
2022/10/19 04:57:00;;;;;;;8.45;2.47;;;;;;;;;;5097783;27;20114;-75
2022/10/19 04:59:27;;;;;;;7.80;2.40;;;;;;;;;;5142646;27;20071;-69
2022/10/19 05:01:53;;;;;;;6.03;2.42;;;;;;;;;;5134614;27;20061;-67
2022/10/19 05:04:19;;;;;;;10.00;2.72;;;;;;;;;;5135188;27;20084;-67
2022/10/19 05:06:45;;;;;;;6.13;1.98;;;;;;;;;;5133856;27;20035;-75
2022/10/19 05:09:11;;;;;;;7.15;2.28;;;;;;;;;;5118087;27;20119;-76
2022/10/19 05:11:37;;;;;;;6.13;2.50;;;;;;;;;;5115582;27;20043;-66
2022/10/19 05:14:03;;;;;;;5.03;2.22;;;;;;;;;;5115438;27;20050;-66
2022/10/19 05:16:30;;;;;;;3.55;1.70;;;;;;;;;;5133665;27;20070;-66
2022/10/19 05:18:57;;;;;;;7.03;1.75;;;;;;;;;;5134698;27;20068;-67
2022/10/19 05:21:24;;;;;;;7.00;1.67;;;;;;;;;;5144509;27;20443;-76
2022/10/19 05:23:51;;;;;;;6.20;2.13;;;;;;;;;;5134218;27;20126;-76
2022/10/19 05:26:18;;;;;;;8.27;2.35;;;;;;;;;;5115572;27;20034;-76
2022/10/19 05:28:55;;;;;;;5.93;2.20;;;;;;;;;;5099949;27;20039;-76
2022/10/19 05:31:22;;;;;;;8.57;2.60;;;;;;;;;;5134457;27;20039;-76
2022/10/19 05:33:48;;;;;;;6.88;2.42;;;;;;;;;;5133692;27;20035;-67
2022/10/19 05:36:14;;;;;;;12.30;2.78;;;;;;;;;;5115268;27;20070;-67
2022/10/19 05:38:41;;;;;;;8.73;2.60;;;;;;;;;;5117910;27;20039;-67
2022/10/19 05:41:07;;;;;;;7.57;2.63;;;;;;;;;;5125033;27;20040;-67
2022/10/19 05:43:33;;;;;;;9.82;2.58;;;;;;;;;;5127956;27;20031;-67
2022/10/19 05:46:06;;;;;;;8.43;2.30;;;;;;;;;;5138346;27;20506;-67
2022/10/19 05:48:33;;;;;;;8.68;2.80;;;;;;;;;;5107174;27;20535;-67
2022/10/19 05:51:00;;;;;;;9.95;3.10;;;;;;;;;;5112378;28;20038;-68
2022/10/19 05:53:27;;;;;;;8.00;2.55;;;;;;;;;;5112023;28;20071;-67
2022/10/19 05:55:53;;;;;;;7.80;2.70;;;;;;;;;;5093301;28;20074;-67
2022/10/19 05:58:19;;;;;;;5.00;2.00;;;;;;;;;;5106164;27;20051;-67
2022/10/19 06:00:50;;;;;;;6.18;1.98;;;;;;;;;;5133945;27;20048;-67
2022/10/19 06:03:17;;;;;;;9.13;2.30;;;;;;;;;;5097926;27;20035;-68
2022/10/19 06:05:43;;;;;;;7.05;2.70;;;;;;;;;;5132461;27;20031;-67
2022/10/19 06:08:09;;;;;;;8.77;2.90;;;;;;;;;;5133975;27;20077;-77
2022/10/19 06:10:35;;;;;;;8.35;2.60;;;;;;;;;;5136818;27;20039;-76
2022/10/19 06:13:01;;;;;;;7.72;2.38;;;;;;;;;;5125362;27;20071;-76
2022/10/19 06:15:27;;;;;;;6.47;2.20;;;;;;;;;;5115367;27;20042;-76
2022/10/19 06:17:53;;;;;;;7.50;2.70;;;;;;;;;;5144333;27;20067;-76
2022/10/19 06:20:19;;;;;;;6.13;2.60;;;;;;;;;;5117533;27;20049;-76
2022/10/19 06:22:45;;;;;;;7.50;2.80;;;;;;;;;;5135273;27;20038;-77
2022/10/19 06:25:11;;;;;;;8.05;2.65;;;;;;;;;;5133062;28;20476;-76
2022/10/19 06:27:40;;;;;;;8.40;2.80;;;;;;;;;;5114677;28;20038;-77
2022/10/19 06:30:07;;;;;;;10.70;2.50;;;;;;;;;;5101717;28;20042;-78
2022/10/19 06:32:33;;;;;;;8.85;2.72;;;;;;;;;;5128936;27;20506;-77
2022/10/19 06:34:59;;;;;;;9.40;2.88;;;;;;;;;;5137825;27;20028;-78
2022/10/19 06:37:25;;;;;;;8.18;3.03;;;;;;;;;;5119234;27;20480;-77
2022/10/19 06:39:51;;;;;;;10.50;2.80;;;;;;;;;;5118436;27;20175;-76
2022/10/19 06:42:17;;;;;;;10.93;2.70;;;;;;;;;;5137911;27;20532;-76
2022/10/19 06:44:44;;;;;;;8.73;3.03;;;;;;;;;;5142494;27;20752;-76
2022/10/19 06:47:10;;;;;;;5.72;2.30;;;;;;;;;;5133006;27;20436;-76
2022/10/19 06:49:37;;;;;;;7.72;2.25;;;;;;;;;;5139447;27;20074;-76
2022/10/19 06:52:04;;;;;;;9.88;2.70;;;;;;;;;;5118335;27;20054;-76
2022/10/19 06:54:30;;;;;;;11.57;2.42;;;;;;;;;;5106325;27;20457;-76
2022/10/19 06:56:56;;;;;;;7.50;2.15;;;;;;;;;;5100354;27;20050;-76
2022/10/19 06:59:22;;;;;;;7.40;2.20;;;;;;;;;;5136804;27;20047;-76
2022/10/19 07:01:49;;;;;;;8.68;2.05;;;;;;;;;;5136050;27;20544;-76
2022/10/19 07:04:15;;;;;;;11.30;2.30;;;;;;;;;;5110887;27;20543;-67
2022/10/19 07:06:41;;;;;;;10.30;2.42;;;;;;;;;;5118743;27;20043;-67
2022/10/19 07:09:07;;;;;;;9.43;2.30;;;;;;;;;;5113269;28;20043;-67
2022/10/19 07:11:33;;;;;;;10.32;2.10;;;;;;;;;;5102080;27;20495;-67
2022/10/19 07:13:59;;;;;;;5.15;1.70;;;;;;;;;;5128936;27;20070;-67
2022/10/19 07:16:25;;;;;;;13.52;2.00;;;;;;;;;;5123310;27;20137;-67
2022/10/19 07:18:52;;;;;;;7.18;1.75;;;;;;;;;;5124078;27;20511;-76
2022/10/19 07:21:19;;;;;;;7.53;1.77;;;;;;;;;;5121831;27;20039;-76
2022/10/19 07:23:46;;;;;;;7.10;1.73;;;;;;;;;;5100818;28;20043;-76
2022/10/19 07:26:13;;;;;;;6.82;1.38;;;;;;;;;;5090806;28;20055;-76
2022/10/19 07:28:40;;;;;;;9.00;1.67;;;;;;;;;;5120691;27;20471;-68
2022/10/19 07:31:14;;;;;;;9.50;1.70;;;;;;;;;;5099220;27;20044;-67
2022/10/19 07:33:40;;;;;;;10.90;2.15;;;;;;;;;;5107719;27;20050;-68
2022/10/19 07:36:07;;;;;;;9.77;1.90;;;;;;;;;;5128796;27;20039;-68
2022/10/19 07:38:33;;;;;;;9.88;1.73;;;;;;;;;;5108059;27;20071;-67
2022/10/19 07:41:00;;;;;;;10.05;1.60;;;;;;;;;;5100702;27;20039;-68
2022/10/19 07:43:26;;;;;;;8.23;1.60;;;;;;;;;;5111838;27;20031;-68
2022/10/19 07:45:57;;;;;;;9.15;1.48;;;;;;;;;;5132625;27;20039;-68
2022/10/19 07:48:23;;;;;;;13.90;1.80;;;;;;;;;;5125581;27;20079;-68
2022/10/19 07:50:49;;;;;;;7.82;1.30;;;;;;;;;;5114878;28;20031;-68
2022/10/19 07:53:15;;;;;;;14.07;1.80;;;;;;;;;;5118784;27;20058;-68
2022/10/19 07:55:41;;;;;;;6.82;1.75;;;;;;;;;;5118353;27;20054;-68
2022/10/19 07:58:07;;;;;;;8.75;2.15;;;;;;;;;;5138483;27;20035;-68
2022/10/19 08:00:34;;;;;;;7.38;1.20;;;;;;;;;;5102833;28;20386;-68
2022/10/19 08:03:00;;;;;;;8.63;1.45;;;;;;;;;;5095842;27;20505;-69
2022/10/19 08:05:26;;;;;;;10.00;1.33;;;;;;;;;;5102543;27;20039;-68
2022/10/19 08:07:52;;;;;;;7.90;1.20;;;;;;;;;;5107328;27;20074;-68
2022/10/19 08:10:18;;;;;;;7.70;1.10;;;;;;;;;;5103054;27;20050;-68
2022/10/19 08:12:44;;;;;;;6.45;1.20;;;;;;;;;;5103761;27;20079;-68
2022/10/19 08:15:10;;;;;;;9.85;1.40;;;;;;;;;;5120283;27;20483;-68
2022/10/19 08:17:37;;;;;;;9.07;1.35;;;;;;;;;;5107261;27;20359;-69
2022/10/19 08:20:05;;;;;;;11.98;1.58;;;;;;;;;;5112243;27;20043;-69
2022/10/19 08:22:31;;;;;;;7.03;1.30;;;;;;;;;;5104641;27;20084;-68
2022/10/19 08:24:57;;;;;;;7.65;1.38;;;;;;;;;;5114108;28;20106;-68
2022/10/19 08:27:23;;;;;;;5.78;1.08;;;;;;;;;;5124158;27;20080;-78
2022/10/19 08:29:50;;;;;;;9.05;1.50;;;;;;;;;;5131171;27;20034;-79
2022/10/19 08:32:16;;;;;;;8.73;1.05;;;;;;;;;;5101861;27;20048;-79
2022/10/19 08:34:42;;;;;;;9.63;1.45;;;;;;;;;;5097447;28;20182;-69
2022/10/19 08:37:08;;;;;;;10.15;1.65;;;;;;;;;;5096374;28;20499;-69
2022/10/19 08:39:34;;;;;;;8.75;1.02;;;;;;;;;;5127180;27;20537;-69
2022/10/19 08:42:00;;;;;;;8.30;1.05;;;;;;;;;;5141804;27;20494;-69
2022/10/19 08:44:45;;;;;;;11.75;1.30;;;;;;;;;;5111370;27;20039;-69
2022/10/19 08:47:30;;;;;;;8.55;1.63;;;;;;;;;;5126492;27;20077;-68
2022/10/19 08:49:57;;;;;;;11.02;1.25;;;;;;;;;;5105094;27;20043;-79
2022/10/19 08:52:33;;;;;;;8.13;1.13;;;;;;;;;;5113775;27;20075;-78
2022/10/19 08:55:07;;;;;;;7.68;1.85;;;;;;;;;;5113014;28;20067;-68
2022/10/19 08:57:41;;;;;;;7.18;1.30;;;;;;;;;;5102311;27;20040;-68
2022/10/19 09:00:20;;;;;;;11.95;1.90;;;;;;;;;;5093058;27;20507;-68
2022/10/19 09:02:46;;;;;;;12.40;1.30;;;;;;;;;;5133047;27;20039;-79
2022/10/19 09:05:31;;;;;;;9.90;1.38;;;;;;;;;;5145089;27;20038;-79
2022/10/19 09:07:58;;;;;;;12.07;2.00;;;;;;;;;;5110193;27;20049;-79
2022/10/19 09:10:38;;;;;;;12.30;1.58;;;;;;;;;;5119030;27;20027;-79
2022/10/19 09:13:07;;;;;;;7.88;1.08;;;;;;;;;;5130454;27;20096;-79
2022/10/19 09:15:41;;;;;;;8.90;1.48;;;;;;;;;;5101976;27;20476;-78
2022/10/19 09:18:11;;;;;;;8.98;1.50;;;;;;;;;;5127428;27;20575;-79
2022/10/19 09:20:45;;;;;;;9.65;1.73;;;;;;;;;;5108608;27;20077;-79
2022/10/19 09:23:11;;;;;;;9.57;1.10;;;;;;;;;;5100199;27;20063;-78
2022/10/19 09:25:38;;;;;;;11.13;1.40;;;;;;;;;;5082470;28;20043;-78
2022/10/19 09:28:12;;;;;;;9.25;1.33;;;;;;;;;;5116273;27;20039;-77
2022/10/19 09:30:39;;;;;;;8.02;1.33;;;;;;;;;;5117527;27;20071;-77
2022/10/19 09:33:11;;;;;;;6.63;1.40;;;;;;;;;;5100932;27;20030;-78
2022/10/19 09:35:40;;;;;;;7.53;1.30;;;;;;;;;;5103330;27;20057;-79
2022/10/19 09:38:07;;;;;;;11.32;1.30;;;;;;;;;;5097669;27;20118;-77
2022/10/19 09:40:34;;;;;;;9.57;1.38;;;;;;;;;;5111743;27;20039;-78
2022/10/19 09:43:12;;;;;;;12.68;1.75;;;;;;;;;;5100945;27;20037;-79
2022/10/19 09:45:47;;;;;;;7.78;1.08;;;;;;;;;;5096765;27;20066;-69
2022/10/19 09:48:20;;;;;;;7.35;1.40;;;;;;;;;;5110036;27;20032;-69
2022/10/19 09:50:51;;;;;;;14.45;3.00;;;;;;;;;;5122477;27;20089;-68
2022/10/19 09:53:19;;;;;;;11.60;1.35;;;;;;;;;;5101330;27;20043;-68
2022/10/19 09:55:47;;;;;;;10.88;1.30;;;;;;;;;;5115306;27;20035;-68
2022/10/19 09:58:13;;;;;;;8.35;1.30;;;;;;;;;;5112881;27;20067;-69
2022/10/19 10:00:41;;;;;;;9.30;1.83;;;;;;;;;;5112439;27;20047;-69
2022/10/19 10:03:14;;;;;;;8.48;1.35;;;;;;;;;;5097750;27;20057;-68
2022/10/19 10:05:40;;;;;;;8.10;1.38;;;;;;;;;;5136673;27;20039;-68
2022/10/19 10:08:12;;;;;;;12.93;1.83;;;;;;;;;;5128338;27;20042;-77
2022/10/19 10:10:42;;;;;;;6.35;1.20;;;;;;;;;;5114616;27;20062;-78
2022/10/19 10:13:18;;;;;;;9.07;1.50;;;;;;;;;;5113777;28;20031;-76
2022/10/19 10:15:47;;;;;;;6.75;1.27;;;;;;;;;;5097192;27;20035;-77
2022/10/19 10:18:14;;;;;;;8.90;1.30;;;;;;;;;;5102626;28;20067;-77
2022/10/19 10:20:55;;;;;;;10.98;1.20;;;;;;;;;;5117378;27;20471;-76
2022/10/19 10:23:26;;;;;;;6.82;1.20;;;;;;;;;;5098130;28;20578;-77
2022/10/19 10:25:54;;;;;;;8.02;1.10;;;;;;;;;;5121368;27;20041;-77
2022/10/19 10:28:22;;;;;;;8.52;1.38;;;;;;;;;;5098085;28;20402;-78
2022/10/19 10:30:52;;;;;;;7.72;1.48;;;;;;;;;;5113001;27;20118;-78
2022/10/19 10:33:25;;;;;;;6.97;1.10;;;;;;;;;;5097975;28;20036;-77
2022/10/19 10:35:54;;;;;;;9.43;1.20;;;;;;;;;;5101516;28;20039;-77
2022/10/19 10:38:28;;;;;;;7.65;1.48;;;;;;;;;;5117137;27;20088;-78
2022/10/19 10:40:57;;;;;;;6.55;1.25;;;;;;;;;;5116203;27;20035;-68
2022/10/19 10:43:27;;;;;;;8.25;1.58;;;;;;;;;;5116155;27;20394;-68
2022/10/19 10:45:53;;;;;;;8.30;1.90;;;;;;;;;;5111280;27;20039;-69
2022/10/19 10:48:38;;;;;;;9.50;2.15;;;;;;;;;;5092173;27;20126;-68
2022/10/19 10:51:09;;;;;;;13.77;2.03;;;;;;;;;;5139264;27;20360;-70
2022/10/19 10:53:42;;;;;;;6.15;1.20;;;;;;;;;;5129030;27;20084;-77
2022/10/19 10:56:27;;;;;;;12.88;1.90;;;;;;;;;;5129788;27;20042;-77
2022/10/19 10:59:06;;;;;;;7.18;1.30;;;;;;;;;;5111658;28;20052;-77
2022/10/19 11:01:37;;;;;;;9.40;1.38;;;;;;;;;;5128693;27;20046;-77
2022/10/19 11:04:05;;;;;;;5.68;1.20;;;;;;;;;;5122896;27;20102;-77
2022/10/19 11:06:33;;;;;;;6.43;1.60;;;;;;;;;;5123967;27;20077;-77
2022/10/19 11:09:07;;;;;;;7.93;1.45;;;;;;;;;;5127534;27;20036;-78
2022/10/19 11:11:41;;;;;;;8.18;1.50;;;;;;;;;;5124234;27;20047;-78
2022/10/19 11:14:10;;;;;;;8.95;1.25;;;;;;;;;;5101172;27;20047;-69
2022/10/19 11:16:41;;;;;;;6.28;1.33;;;;;;;;;;5095535;27;20050;-69
2022/10/19 11:19:13;;;;;;;6.05;1.23;;;;;;;;;;5106322;27;20035;-69
2022/10/19 11:21:43;;;;;;;6.70;1.20;;;;;;;;;;5138384;27;20042;-68
2022/10/19 11:24:15;;;;;;;7.97;1.38;;;;;;;;;;5098868;28;20119;-69
2022/10/19 11:26:45;;;;;;;6.43;1.30;;;;;;;;;;5096884;28;20074;-70
2022/10/19 11:29:27;;;;;;;9.48;1.48;;;;;;;;;;5098380;27;20530;-70
2022/10/19 11:31:54;;;;;;;7.57;1.23;;;;;;;;;;5097522;28;20504;-69
2022/10/19 11:34:42;;;;;;;6.15;1.25;;;;;;;;;;5123932;27;20039;-70
2022/10/19 11:37:18;;;;;;;24.20;2.30;;;;;;;;;;5096945;28;20044;-72
2022/10/19 11:39:52;;;;;;;6.80;1.25;;;;;;;;;;5105225;27;20122;-69
2022/10/19 11:42:21;;;;;;;9.40;1.42;;;;;;;;;;5097903;27;20075;-69
2022/10/19 11:45:00;;;;;;;6.60;0.90;;;;;;;;;;5097312;28;20057;-70
2022/10/19 11:47:42;;;;;;;7.38;1.33;;;;;;;;;;5102200;28;20039;-77
2022/10/19 11:50:11;;;;;;;6.03;1.27;;;;;;;;;;5100755;27;20114;-77
2022/10/19 11:52:48;;;;;;;9.05;1.38;;;;;;;;;;5096743;28;20074;-74
2022/10/19 11:55:17;;;;;;;7.70;1.42;;;;;;;;;;5108955;27;20066;-76
2022/10/19 11:57:53;;;;;;;4.25;1.17;;;;;;;;;;5109342;28;20043;-76
2022/10/19 12:00:19;;;;;;;5.65;1.20;;;;;;;;;;5128477;27;20051;-76
2022/10/19 12:02:45;;;;;;;9.95;1.20;;;;;;;;;;5106387;28;20048;-78
2022/10/19 12:05:28;;;;;;;6.40;1.25;;;;;;;;;;5106154;27;20039;-76
2022/10/19 12:08:03;;;;;;;5.97;1.10;;;;;;;;;;5109468;27;20043;-77
2022/10/19 12:11:02;;;;;;;6.13;1.38;;;;;;;;;;5113458;27;20556;-70
2022/10/19 12:13:39;;;;;;;4.82;1.20;;;;;;;;;;5071995;27;20050;-70
2022/10/19 12:16:06;;;;;;;6.47;1.58;;;;;;;;;;5100645;27;20499;-70
2022/10/19 12:18:41;;;;;;;6.00;1.42;;;;;;;;;;5114007;27;20479;-70
2022/10/19 12:21:30;;;;;;;4.82;1.58;;;;;;;;;;5131624;27;20587;-70
2022/10/19 12:23:58;;;;;;;7.18;1.95;;;;;;;;;;5122637;27;20027;-69
2022/10/19 12:26:25;;;;;;;7.70;1.65;;;;;;;;;;5101355;27;20035;-71
2022/10/19 12:28:59;;;;;;;9.27;1.55;;;;;;;;;;5087890;28;20452;-70
2022/10/19 12:31:26;;;;;;;7.25;1.30;;;;;;;;;;5119937;27;20034;-70
2022/10/19 12:33:56;;;;;;;6.60;1.58;;;;;;;;;;5096529;28;20039;-70
2022/10/19 12:36:49;;;;;;;6.63;1.40;;;;;;;;;;5092022;27;20038;-69
2022/10/19 12:39:15;;;;;;;9.45;1.42;;;;;;;;;;5115832;27;20090;-70
2022/10/19 12:41:41;;;;;;;8.35;1.63;;;;;;;;;;5103539;27;20039;-69
2022/10/19 12:44:26;;;;;;;4.65;1.05;;;;;;;;;;5088403;28;20044;-70
2022/10/19 12:47:12;;;;;;;4.50;1.00;;;;;;;;;;5085558;27;20043;-70
2022/10/19 12:49:45;;;;;;;8.55;1.48;;;;;;;;;;5103423;27;20047;-69
2022/10/19 12:52:12;;;;;;;8.95;1.40;;;;;;;;;;5113873;28;20104;-76
2022/10/19 12:54:40;;;;;;;9.07;1.98;;;;;;;;;;5103619;27;20044;-77
2022/10/19 12:57:20;;;;;;;8.10;1.40;;;;;;;;;;5100545;27;20040;-76
2022/10/19 12:59:57;;;;;;;6.85;1.70;;;;;;;;;;5098314;27;20082;-77
2022/10/19 13:02:33;;;;;;;5.93;1.27;;;;;;;;;;5133576;27;20039;-68
2022/10/19 13:05:00;;;;;;;7.68;1.33;;;;;;;;;;5130664;27;20039;-69
2022/10/19 13:07:26;;;;;;;4.78;1.25;;;;;;;;;;5117955;27;20042;-69
2022/10/19 13:09:59;;;;;;;8.05;1.92;;;;;;;;;;5115716;27;20522;-67
2022/10/19 13:12:25;;;;;;;6.82;1.20;;;;;;;;;;5133990;27;20038;-68
2022/10/19 13:14:58;;;;;;;7.38;1.40;;;;;;;;;;5109119;27;20484;-69
2022/10/19 13:17:36;;;;;;;6.25;1.50;;;;;;;;;;5113142;27;20050;-69
2022/10/19 13:20:14;;;;;;;5.60;1.85;;;;;;;;;;5115313;27;20046;-75
2022/10/19 13:22:47;;;;;;;9.13;1.92;;;;;;;;;;5109016;28;20042;-75
2022/10/19 13:25:17;;;;;;;9.27;2.00;;;;;;;;;;5112882;27;20483;-76
2022/10/19 13:27:44;;;;;;;8.07;1.90;;;;;;;;;;5115606;27;20038;-75
2022/10/19 13:30:29;;;;;;;7.13;2.00;;;;;;;;;;5102870;27;20039;-76
2022/10/19 13:32:55;;;;;;;7.05;1.73;;;;;;;;;;5106016;28;20093;-76
2022/10/19 13:35:24;;;;;;;8.27;2.00;;;;;;;;;;5128191;27;20046;-76
2022/10/19 13:38:10;;;;;;;8.30;1.95;;;;;;;;;;5127648;27;20039;-75
2022/10/19 13:40:37;;;;;;;5.55;2.08;;;;;;;;;;5127131;27;20068;-75
2022/10/19 13:43:03;;;;;;;6.15;1.90;;;;;;;;;;5115433;27;20035;-76
2022/10/19 13:45:29;;;;;;;7.05;1.67;;;;;;;;;;5116347;27;20081;-75
2022/10/19 13:48:03;;;;;;;7.40;2.13;;;;;;;;;;5098623;27;20400;-68
2022/10/19 13:50:32;;;;;;;4.47;1.70;;;;;;;;;;5114789;27;20039;-68
2022/10/19 13:53:15;;;;;;;9.02;1.98;;;;;;;;;;5133606;27;20031;-69
2022/10/19 13:55:52;;;;;;;7.78;2.30;;;;;;;;;;5108951;27;20045;-71
2022/10/19 13:58:30;;;;;;;7.95;2.33;;;;;;;;;;5114934;27;20680;-69
2022/10/19 14:01:05;;;;;;;7.43;1.90;;;;;;;;;;5097741;27;20043;-76
2022/10/19 14:03:50;;;;;;;9.52;2.15;;;;;;;;;;5114898;27;20053;-77
2022/10/19 14:06:16;;;;;;;11.45;1.73;;;;;;;;;;5132699;27;20436;-76
2022/10/19 14:09:01;;;;;;;6.05;2.03;;;;;;;;;;5118368;27;20491;-75
2022/10/19 14:11:47;;;;;;;11.10;2.00;;;;;;;;;;5112939;28;20034;-75
2022/10/19 14:14:14;;;;;;;6.72;1.70;;;;;;;;;;5112284;27;20075;-68
2022/10/19 14:16:46;;;;;;;8.15;1.85;;;;;;;;;;5117998;27;20519;-68
2022/10/19 14:19:19;;;;;;;8.60;2.30;;;;;;;;;;5118294;27;20057;-67
2022/10/19 14:21:45;;;;;;;4.63;1.95;;;;;;;;;;5115205;28;20467;-68
2022/10/19 14:24:23;;;;;;;6.47;2.38;;;;;;;;;;5132874;28;20058;-68
2022/10/19 14:26:49;;;;;;;10.35;2.20;;;;;;;;;;5115377;27;20035;-67
2022/10/19 14:29:15;;;;;;;9.40;2.33;;;;;;;;;;5136703;27;20035;-76
2022/10/19 14:31:41;;;;;;;8.48;2.72;;;;;;;;;;5088341;27;20391;-79
2022/10/19 14:34:08;;;;;;;7.22;2.28;;;;;;;;;;5119031;28;20042;-76
2022/10/19 14:36:37;;;;;;;10.52;2.25;;;;;;;;;;5108784;27;20035;-78
2022/10/19 14:39:03;;;;;;;7.28;2.50;;;;;;;;;;5139113;27;20522;-79
2022/10/19 14:41:31;;;;;;;5.78;2.25;;;;;;;;;;5120349;28;20049;-77
2022/10/19 14:43:58;;;;;;;9.25;2.35;;;;;;;;;;5133262;28;20043;-77
2022/10/19 14:46:26;;;;;;;11.80;2.58;;;;;;;;;;5080869;28;20035;-77
2022/10/19 14:48:52;;;;;;;8.48;2.67;;;;;;;;;;5114068;28;20046;-77
2022/10/19 14:51:44;;;;;;;8.35;2.13;;;;;;;;;;5133620;27;20039;-77
2022/10/19 14:54:18;;;;;;;8.88;2.53;;;;;;;;;;5098418;27;20426;-78
2022/10/19 14:56:47;;;;;;;6.35;2.13;;;;;;;;;;5115064;27;20039;-77